sensor_id;sensor_type;location;lat;lon;timestamp;P1;durP1;ratioP1;P2;durP2;ratioP2
16468;SDS011;8345;50.902;6.956;2023-05-08T00:01:34;7.73;;;7.03;;
16468;SDS011;8345;50.902;6.956;2023-05-08T00:04:02;8.53;;;7.73;;
16468;SDS011;8345;50.902;6.956;2023-05-08T00:06:29;7.23;;;6.73;;
16468;SDS011;8345;50.902;6.956;2023-05-08T00:08:56;7.60;;;7.00;;
16468;SDS011;8345;50.902;6.956;2023-05-08T00:11:25;7.93;;;7.20;;
16468;SDS011;8345;50.902;6.956;2023-05-08T00:13:52;8.17;;;7.47;;
16468;SDS011;8345;50.902;6.956;2023-05-08T00:16:19;7.90;;;7.17;;
16468;SDS011;8345;50.902;6.956;2023-05-08T00:18:46;7.73;;;6.93;;
16468;SDS011;8345;50.902;6.956;2023-05-08T00:21:13;7.90;;;7.13;;
16468;SDS011;8345;50.902;6.956;2023-05-08T00:23:41;7.80;;;7.10;;
16468;SDS011;8345;50.902;6.956;2023-05-08T00:26:08;8.10;;;7.30;;
16468;SDS011;8345;50.902;6.956;2023-05-08T00:28:36;7.77;;;6.97;;
16468;SDS011;8345;50.902;6.956;2023-05-08T00:31:04;6.97;;;6.37;;
16468;SDS011;8345;50.902;6.956;2023-05-08T00:33:31;7.10;;;6.50;;
16468;SDS011;8345;50.902;6.956;2023-05-08T00:35:58;6.90;;;6.30;;
16468;SDS011;8345;50.902;6.956;2023-05-08T00:38:25;5.90;;;5.47;;
16468;SDS011;8345;50.902;6.956;2023-05-08T00:40:53;5.67;;;5.17;;
16468;SDS011;8345;50.902;6.956;2023-05-08T00:43:20;5.63;;;5.13;;
16468;SDS011;8345;50.902;6.956;2023-05-08T00:45:51;5.00;;;4.70;;
16468;SDS011;8345;50.902;6.956;2023-05-08T00:48:18;4.67;;;4.23;;
16468;SDS011;8345;50.902;6.956;2023-05-08T00:50:47;5.07;;;4.57;;
16468;SDS011;8345;50.902;6.956;2023-05-08T00:53:14;4.30;;;3.90;;
16468;SDS011;8345;50.902;6.956;2023-05-08T00:55:41;4.30;;;3.90;;
16468;SDS011;8345;50.902;6.956;2023-05-08T00:58:09;4.60;;;4.30;;
16468;SDS011;8345;50.902;6.956;2023-05-08T01:00:37;4.27;;;3.97;;
16468;SDS011;8345;50.902;6.956;2023-05-08T01:03:06;4.40;;;4.00;;
16468;SDS011;8345;50.902;6.956;2023-05-08T01:05:35;4.70;;;4.27;;
16468;SDS011;8345;50.902;6.956;2023-05-08T01:08:02;4.50;;;4.20;;
16468;SDS011;8345;50.902;6.956;2023-05-08T01:10:31;4.20;;;3.90;;
16468;SDS011;8345;50.902;6.956;2023-05-08T01:13:03;4.80;;;4.40;;
16468;SDS011;8345;50.902;6.956;2023-05-08T01:15:34;5.93;;;4.43;;
16468;SDS011;8345;50.902;6.956;2023-05-08T01:18:06;4.83;;;4.53;;
16468;SDS011;8345;50.902;6.956;2023-05-08T01:20:41;5.10;;;4.50;;
16468;SDS011;8345;50.902;6.956;2023-05-08T01:23:16;4.53;;;4.20;;
16468;SDS011;8345;50.902;6.956;2023-05-08T01:28:43;5.03;;;4.37;;
16468;SDS011;8345;50.902;6.956;2023-05-08T01:31:15;5.70;;;4.53;;
16468;SDS011;8345;50.902;6.956;2023-05-08T01:33:46;4.70;;;4.30;;
16468;SDS011;8345;50.902;6.956;2023-05-08T01:36:20;5.07;;;4.60;;
16468;SDS011;8345;50.902;6.956;2023-05-08T01:38:52;4.80;;;4.47;;
16468;SDS011;8345;50.902;6.956;2023-05-08T01:41:24;3.90;;;3.60;;
16468;SDS011;8345;50.902;6.956;2023-05-08T01:43:54;4.50;;;4.20;;
16468;SDS011;8345;50.902;6.956;2023-05-08T01:46:22;4.93;;;4.53;;
16468;SDS011;8345;50.902;6.956;2023-05-08T01:48:54;5.07;;;4.67;;
16468;SDS011;8345;50.902;6.956;2023-05-08T01:51:22;6.53;;;5.00;;
16468;SDS011;8345;50.902;6.956;2023-05-08T01:53:52;5.10;;;4.60;;
16468;SDS011;8345;50.902;6.956;2023-05-08T01:56:23;5.40;;;4.90;;
16468;SDS011;8345;50.902;6.956;2023-05-08T01:58:51;5.23;;;4.83;;
16468;SDS011;8345;50.902;6.956;2023-05-08T02:01:21;5.27;;;4.80;;
16468;SDS011;8345;50.902;6.956;2023-05-08T02:03:49;5.07;;;4.67;;
16468;SDS011;8345;50.902;6.956;2023-05-08T02:06:19;6.03;;;5.63;;
16468;SDS011;8345;50.902;6.956;2023-05-08T02:08:48;5.67;;;5.17;;
16468;SDS011;8345;50.902;6.956;2023-05-08T02:11:15;5.23;;;4.83;;
16468;SDS011;8345;50.902;6.956;2023-05-08T02:13:44;4.87;;;4.50;;
16468;SDS011;8345;50.902;6.956;2023-05-08T02:16:12;5.67;;;5.20;;
16468;SDS011;8345;50.902;6.956;2023-05-08T02:18:41;5.47;;;5.00;;
16468;SDS011;8345;50.902;6.956;2023-05-08T02:21:09;5.43;;;4.93;;
16468;SDS011;8345;50.902;6.956;2023-05-08T02:23:40;5.73;;;5.20;;
16468;SDS011;8345;50.902;6.956;2023-05-08T02:26:07;5.93;;;5.20;;
16468;SDS011;8345;50.902;6.956;2023-05-08T02:28:35;6.57;;;6.07;;
16468;SDS011;8345;50.902;6.956;2023-05-08T02:31:02;5.77;;;5.23;;
16468;SDS011;8345;50.902;6.956;2023-05-08T02:33:31;5.50;;;5.00;;
16468;SDS011;8345;50.902;6.956;2023-05-08T02:35:58;6.13;;;5.63;;
16468;SDS011;8345;50.902;6.956;2023-05-08T02:38:26;6.57;;;5.43;;
16468;SDS011;8345;50.902;6.956;2023-05-08T02:40:57;6.23;;;5.63;;
16468;SDS011;8345;50.902;6.956;2023-05-08T02:43:26;6.40;;;5.87;;
16468;SDS011;8345;50.902;6.956;2023-05-08T02:45:56;6.50;;;5.90;;
16468;SDS011;8345;50.902;6.956;2023-05-08T02:48:25;6.40;;;5.80;;
16468;SDS011;8345;50.902;6.956;2023-05-08T02:50:56;6.73;;;5.83;;
16468;SDS011;8345;50.902;6.956;2023-05-08T02:53:25;6.43;;;5.93;;
16468;SDS011;8345;50.902;6.956;2023-05-08T02:56:01;6.40;;;5.90;;
16468;SDS011;8345;50.902;6.956;2023-05-08T02:58:30;6.43;;;5.93;;
16468;SDS011;8345;50.902;6.956;2023-05-08T03:01:01;6.47;;;5.97;;
16468;SDS011;8345;50.902;6.956;2023-05-08T03:03:31;6.70;;;6.03;;
16468;SDS011;8345;50.902;6.956;2023-05-08T03:06:01;6.73;;;6.13;;
16468;SDS011;8345;50.902;6.956;2023-05-08T03:08:30;6.90;;;6.30;;
16468;SDS011;8345;50.902;6.956;2023-05-08T03:11:00;6.77;;;6.23;;
16468;SDS011;8345;50.902;6.956;2023-05-08T03:13:28;7.20;;;6.57;;
16468;SDS011;8345;50.902;6.956;2023-05-08T03:15:57;8.13;;;6.80;;
16468;SDS011;8345;50.902;6.956;2023-05-08T03:18:27;7.30;;;6.70;;
16468;SDS011;8345;50.902;6.956;2023-05-08T03:20:57;7.00;;;6.40;;
16468;SDS011;8345;50.902;6.956;2023-05-08T03:23:25;7.07;;;6.37;;
16468;SDS011;8345;50.902;6.956;2023-05-08T03:25:54;7.10;;;6.50;;
16468;SDS011;8345;50.902;6.956;2023-05-08T03:28:24;7.40;;;6.80;;
16468;SDS011;8345;50.902;6.956;2023-05-08T03:30:52;7.63;;;6.93;;
16468;SDS011;8345;50.902;6.956;2023-05-08T03:33:20;7.80;;;7.20;;
16468;SDS011;8345;50.902;6.956;2023-05-08T03:35:47;7.77;;;7.07;;
16468;SDS011;8345;50.902;6.956;2023-05-08T03:38:15;8.17;;;7.57;;
16468;SDS011;8345;50.902;6.956;2023-05-08T03:40:43;7.77;;;7.13;;
16468;SDS011;8345;50.902;6.956;2023-05-08T03:43:11;7.77;;;7.17;;
16468;SDS011;8345;50.902;6.956;2023-05-08T03:45:39;7.93;;;7.27;;
16468;SDS011;8345;50.902;6.956;2023-05-08T03:48:07;8.13;;;7.53;;
16468;SDS011;8345;50.902;6.956;2023-05-08T03:50:35;8.70;;;7.80;;
16468;SDS011;8345;50.902;6.956;2023-05-08T03:53:03;8.13;;;7.43;;
16468;SDS011;8345;50.902;6.956;2023-05-08T03:55:30;8.50;;;7.80;;
16468;SDS011;8345;50.902;6.956;2023-05-08T03:57:59;9.77;;;8.83;;
16468;SDS011;8345;50.902;6.956;2023-05-08T04:00:28;8.60;;;7.90;;
16468;SDS011;8345;50.902;6.956;2023-05-08T04:03:03;9.13;;;8.40;;
16468;SDS011;8345;50.902;6.956;2023-05-08T04:05:33;8.47;;;7.70;;
16468;SDS011;8345;50.902;6.956;2023-05-08T04:08:02;9.47;;;8.67;;
16468;SDS011;8345;50.902;6.956;2023-05-08T04:10:34;8.97;;;8.27;;
16468;SDS011;8345;50.902;6.956;2023-05-08T04:13:04;8.90;;;8.10;;
16468;SDS011;8345;50.902;6.956;2023-05-08T04:15:33;8.70;;;8.00;;
16468;SDS011;8345;50.902;6.956;2023-05-08T04:18:03;10.13;;;8.50;;
16468;SDS011;8345;50.902;6.956;2023-05-08T04:20:32;9.33;;;8.43;;
16468;SDS011;8345;50.902;6.956;2023-05-08T04:22:59;10.10;;;9.20;;
16468;SDS011;8345;50.902;6.956;2023-05-08T04:25:28;9.33;;;8.43;;
16468;SDS011;8345;50.902;6.956;2023-05-08T04:27:56;9.60;;;8.60;;
16468;SDS011;8345;50.902;6.956;2023-05-08T04:30:24;8.83;;;8.03;;
16468;SDS011;8345;50.902;6.956;2023-05-08T04:32:51;35.67;;;31.83;;
16468;SDS011;8345;50.902;6.956;2023-05-08T04:35:21;11.90;;;10.80;;
16468;SDS011;8345;50.902;6.956;2023-05-08T04:37:48;12.63;;;11.43;;
16468;SDS011;8345;50.902;6.956;2023-05-08T04:40:15;10.33;;;9.17;;
16468;SDS011;8345;50.902;6.956;2023-05-08T04:42:42;10.40;;;9.50;;
16468;SDS011;8345;50.902;6.956;2023-05-08T04:45:11;9.20;;;8.50;;
16468;SDS011;8345;50.902;6.956;2023-05-08T04:47:38;11.43;;;10.10;;
16468;SDS011;8345;50.902;6.956;2023-05-08T04:50:06;10.73;;;9.87;;
16468;SDS011;8345;50.902;6.956;2023-05-08T04:52:34;10.90;;;10.00;;
16468;SDS011;8345;50.902;6.956;2023-05-08T04:55:02;9.90;;;9.00;;
16468;SDS011;8345;50.902;6.956;2023-05-08T04:57:29;10.80;;;9.80;;
16468;SDS011;8345;50.902;6.956;2023-05-08T04:59:56;10.03;;;9.13;;
16468;SDS011;8345;50.902;6.956;2023-05-08T05:02:24;10.00;;;9.17;;
16468;SDS011;8345;50.902;6.956;2023-05-08T05:04:51;10.40;;;9.57;;
16468;SDS011;8345;50.902;6.956;2023-05-08T05:07:22;10.47;;;9.57;;
16468;SDS011;8345;50.902;6.956;2023-05-08T05:09:51;10.87;;;9.97;;
16468;SDS011;8345;50.902;6.956;2023-05-08T05:12:18;10.47;;;9.63;;
16468;SDS011;8345;50.902;6.956;2023-05-08T05:14:45;11.87;;;10.87;;
16468;SDS011;8345;50.902;6.956;2023-05-08T05:17:12;11.57;;;10.57;;
16468;SDS011;8345;50.902;6.956;2023-05-08T05:19:39;11.07;;;10.07;;
16468;SDS011;8345;50.902;6.956;2023-05-08T05:22:07;12.17;;;11.07;;
16468;SDS011;8345;50.902;6.956;2023-05-08T05:24:34;12.50;;;11.40;;
16468;SDS011;8345;50.902;6.956;2023-05-08T05:27:02;11.27;;;10.23;;
16468;SDS011;8345;50.902;6.956;2023-05-08T05:29:30;10.87;;;9.97;;
16468;SDS011;8345;50.902;6.956;2023-05-08T05:31:57;11.97;;;11.00;;
16468;SDS011;8345;50.902;6.956;2023-05-08T05:34:24;11.80;;;10.80;;
16468;SDS011;8345;50.902;6.956;2023-05-08T05:36:51;11.23;;;10.13;;
16468;SDS011;8345;50.902;6.956;2023-05-08T05:39:18;11.80;;;10.90;;
16468;SDS011;8345;50.902;6.956;2023-05-08T05:41:46;11.10;;;10.20;;
16468;SDS011;8345;50.902;6.956;2023-05-08T05:44:14;12.40;;;11.20;;
16468;SDS011;8345;50.902;6.956;2023-05-08T05:46:41;11.57;;;10.63;;
16468;SDS011;8345;50.902;6.956;2023-05-08T05:49:09;11.93;;;10.93;;
16468;SDS011;8345;50.902;6.956;2023-05-08T05:51:36;11.43;;;10.43;;
16468;SDS011;8345;50.902;6.956;2023-05-08T05:54:04;10.60;;;9.70;;
16468;SDS011;8345;50.902;6.956;2023-05-08T05:56:31;11.63;;;10.67;;
16468;SDS011;8345;50.902;6.956;2023-05-08T05:58:58;12.13;;;11.07;;
16468;SDS011;8345;50.902;6.956;2023-05-08T06:01:27;12.65;;;11.65;;
16468;SDS011;8345;50.902;6.956;2023-05-08T06:03:54;11.53;;;10.43;;
16468;SDS011;8345;50.902;6.956;2023-05-08T06:06:21;12.00;;;11.00;;
16468;SDS011;8345;50.902;6.956;2023-05-08T06:08:48;11.43;;;10.43;;
16468;SDS011;8345;50.902;6.956;2023-05-08T06:11:16;12.10;;;10.90;;
16468;SDS011;8345;50.902;6.956;2023-05-08T06:13:43;11.90;;;10.80;;
16468;SDS011;8345;50.902;6.956;2023-05-08T06:16:10;11.33;;;10.30;;
16468;SDS011;8345;50.902;6.956;2023-05-08T06:18:39;12.00;;;10.90;;
16468;SDS011;8345;50.902;6.956;2023-05-08T06:21:06;10.80;;;10.00;;
16468;SDS011;8345;50.902;6.956;2023-05-08T06:23:33;11.60;;;10.57;;
16468;SDS011;8345;50.902;6.956;2023-05-08T06:26:01;12.30;;;11.20;;
16468;SDS011;8345;50.902;6.956;2023-05-08T06:28:28;11.27;;;10.17;;
16468;SDS011;8345;50.902;6.956;2023-05-08T06:30:55;14.73;;;10.33;;
16468;SDS011;8345;50.902;6.956;2023-05-08T06:33:22;11.53;;;10.63;;
16468;SDS011;8345;50.902;6.956;2023-05-08T06:35:51;11.53;;;10.63;;
16468;SDS011;8345;50.902;6.956;2023-05-08T06:38:18;11.93;;;10.93;;
16468;SDS011;8345;50.902;6.956;2023-05-08T06:40:45;11.77;;;10.67;;
16468;SDS011;8345;50.902;6.956;2023-05-08T06:43:14;11.67;;;10.67;;
16468;SDS011;8345;50.902;6.956;2023-05-08T06:45:41;10.53;;;9.53;;
16468;SDS011;8345;50.902;6.956;2023-05-08T06:48:09;11.10;;;10.30;;
16468;SDS011;8345;50.902;6.956;2023-05-08T06:50:36;10.63;;;9.83;;
16468;SDS011;8345;50.902;6.956;2023-05-08T06:53:06;12.10;;;11.00;;
16468;SDS011;8345;50.902;6.956;2023-05-08T06:55:33;11.53;;;10.23;;
16468;SDS011;8345;50.902;6.956;2023-05-08T06:58:00;12.13;;;10.93;;
16468;SDS011;8345;50.902;6.956;2023-05-08T07:00:28;11.20;;;10.30;;
16468;SDS011;8345;50.902;6.956;2023-05-08T07:02:55;11.03;;;10.03;;
16468;SDS011;8345;50.902;6.956;2023-05-08T07:05:22;11.00;;;10.13;;
16468;SDS011;8345;50.902;6.956;2023-05-08T07:07:49;11.23;;;10.30;;
16468;SDS011;8345;50.902;6.956;2023-05-08T07:10:19;10.43;;;9.53;;
16468;SDS011;8345;50.902;6.956;2023-05-08T07:12:47;12.37;;;11.27;;
16468;SDS011;8345;50.902;6.956;2023-05-08T07:15:14;11.57;;;10.47;;
16468;SDS011;8345;50.902;6.956;2023-05-08T07:17:41;12.30;;;11.30;;
16468;SDS011;8345;50.902;6.956;2023-05-08T07:20:09;10.83;;;10.03;;
16468;SDS011;8345;50.902;6.956;2023-05-08T07:22:36;10.93;;;10.03;;
16468;SDS011;8345;50.902;6.956;2023-05-08T07:25:03;10.47;;;9.67;;
16468;SDS011;8345;50.902;6.956;2023-05-08T07:27:32;11.13;;;10.13;;
16468;SDS011;8345;50.902;6.956;2023-05-08T07:29:59;11.30;;;10.20;;
16468;SDS011;8345;50.902;6.956;2023-05-08T07:32:28;10.70;;;9.80;;
16468;SDS011;8345;50.902;6.956;2023-05-08T07:34:56;10.40;;;9.60;;
16468;SDS011;8345;50.902;6.956;2023-05-08T07:37:23;11.63;;;10.43;;
16468;SDS011;8345;50.902;6.956;2023-05-08T07:39:50;11.80;;;10.70;;
16468;SDS011;8345;50.902;6.956;2023-05-08T07:42:18;11.40;;;10.37;;
16468;SDS011;8345;50.902;6.956;2023-05-08T07:44:46;11.37;;;10.43;;
16468;SDS011;8345;50.902;6.956;2023-05-08T07:47:13;11.07;;;10.17;;
16468;SDS011;8345;50.902;6.956;2023-05-08T07:49:41;12.03;;;10.53;;
16468;SDS011;8345;50.902;6.956;2023-05-08T07:52:08;11.13;;;10.13;;
16468;SDS011;8345;50.902;6.956;2023-05-08T07:54:35;10.50;;;9.50;;
16468;SDS011;8345;50.902;6.956;2023-05-08T07:57:02;10.57;;;9.60;;
16468;SDS011;8345;50.902;6.956;2023-05-08T07:59:29;10.80;;;9.80;;
16468;SDS011;8345;50.902;6.956;2023-05-08T08:01:58;10.97;;;9.97;;
16468;SDS011;8345;50.902;6.956;2023-05-08T08:04:25;10.63;;;9.77;;
16468;SDS011;8345;50.902;6.956;2023-05-08T08:06:52;10.60;;;9.60;;
16468;SDS011;8345;50.902;6.956;2023-05-08T08:09:19;10.20;;;9.20;;
16468;SDS011;8345;50.902;6.956;2023-05-08T08:11:47;10.10;;;9.20;;
16468;SDS011;8345;50.902;6.956;2023-05-08T08:14:14;10.97;;;9.97;;
16468;SDS011;8345;50.902;6.956;2023-05-08T08:16:41;9.73;;;8.73;;
16468;SDS011;8345;50.902;6.956;2023-05-08T08:19:09;10.47;;;9.57;;
16468;SDS011;8345;50.902;6.956;2023-05-08T08:21:40;11.00;;;10.00;;
16468;SDS011;8345;50.902;6.956;2023-05-08T08:24:07;11.37;;;9.93;;
16468;SDS011;8345;50.902;6.956;2023-05-08T08:26:34;11.73;;;10.57;;
16468;SDS011;8345;50.902;6.956;2023-05-08T08:29:02;10.87;;;9.97;;
16468;SDS011;8345;50.902;6.956;2023-05-08T08:31:29;11.93;;;10.93;;
16468;SDS011;8345;50.902;6.956;2023-05-08T08:33:56;12.37;;;11.10;;
16468;SDS011;8345;50.902;6.956;2023-05-08T08:36:25;11.53;;;10.47;;
16468;SDS011;8345;50.902;6.956;2023-05-08T08:38:52;10.97;;;10.07;;
16468;SDS011;8345;50.902;6.956;2023-05-08T08:41:19;11.60;;;10.40;;
16468;SDS011;8345;50.902;6.956;2023-05-08T08:43:47;12.43;;;11.37;;
16468;SDS011;8345;50.902;6.956;2023-05-08T08:46:14;12.10;;;11.00;;
16468;SDS011;8345;50.902;6.956;2023-05-08T08:48:45;12.43;;;11.33;;
16468;SDS011;8345;50.902;6.956;2023-05-08T08:51:16;11.63;;;10.53;;
16468;SDS011;8345;50.902;6.956;2023-05-08T08:53:45;10.63;;;9.73;;
16468;SDS011;8345;50.902;6.956;2023-05-08T08:56:15;10.77;;;9.37;;
16468;SDS011;8345;50.902;6.956;2023-05-08T08:58:44;11.13;;;10.23;;
16468;SDS011;8345;50.902;6.956;2023-05-08T09:01:15;11.33;;;10.33;;
16468;SDS011;8345;50.902;6.956;2023-05-08T09:03:42;11.00;;;10.10;;
16468;SDS011;8345;50.902;6.956;2023-05-08T09:06:10;11.03;;;10.07;;
16468;SDS011;8345;50.902;6.956;2023-05-08T09:08:38;10.87;;;9.97;;
16468;SDS011;8345;50.902;6.956;2023-05-08T09:11:07;10.97;;;10.03;;
16468;SDS011;8345;50.902;6.956;2023-05-08T09:13:35;10.70;;;9.80;;
16468;SDS011;8345;50.902;6.956;2023-05-08T09:16:02;10.60;;;9.60;;
16468;SDS011;8345;50.902;6.956;2023-05-08T09:18:29;9.63;;;8.83;;
16468;SDS011;8345;50.902;6.956;2023-05-08T09:20:56;11.60;;;10.50;;
16468;SDS011;8345;50.902;6.956;2023-05-08T09:23:24;12.33;;;11.23;;
16468;SDS011;8345;50.902;6.956;2023-05-08T09:25:51;10.80;;;9.67;;
16468;SDS011;8345;50.902;6.956;2023-05-08T09:28:20;11.07;;;10.20;;
16468;SDS011;8345;50.902;6.956;2023-05-08T09:30:48;11.23;;;10.20;;
16468;SDS011;8345;50.902;6.956;2023-05-08T09:33:16;11.70;;;10.60;;
16468;SDS011;8345;50.902;6.956;2023-05-08T09:35:43;11.27;;;10.20;;
16468;SDS011;8345;50.902;6.956;2023-05-08T09:40:59;11.77;;;10.67;;
16468;SDS011;8345;50.902;6.956;2023-05-08T09:43:32;11.57;;;10.53;;
16468;SDS011;8345;50.902;6.956;2023-05-08T09:46:11;12.17;;;11.07;;
16468;SDS011;8345;50.902;6.956;2023-05-08T09:48:45;11.17;;;10.27;;
16468;SDS011;8345;50.902;6.956;2023-05-08T09:51:12;12.00;;;10.90;;
16468;SDS011;8345;50.902;6.956;2023-05-08T09:53:39;11.77;;;10.57;;
16468;SDS011;8345;50.902;6.956;2023-05-08T09:56:06;11.17;;;9.97;;
16468;SDS011;8345;50.902;6.956;2023-05-08T09:58:38;10.70;;;9.80;;
16468;SDS011;8345;50.902;6.956;2023-05-08T10:01:05;11.60;;;10.60;;
16468;SDS011;8345;50.902;6.956;2023-05-08T10:03:45;11.50;;;10.60;;
16468;SDS011;8345;50.902;6.956;2023-05-08T10:06:13;11.10;;;10.10;;
16468;SDS011;8345;50.902;6.956;2023-05-08T10:08:41;10.90;;;9.77;;
16468;SDS011;8345;50.902;6.956;2023-05-08T10:11:14;11.40;;;10.37;;
16468;SDS011;8345;50.902;6.956;2023-05-08T10:13:43;11.80;;;10.73;;
16468;SDS011;8345;50.902;6.956;2023-05-08T10:16:13;10.40;;;9.43;;
16468;SDS011;8345;50.902;6.956;2023-05-08T10:18:42;11.50;;;10.50;;
16468;SDS011;8345;50.902;6.956;2023-05-08T10:21:10;11.93;;;10.40;;
16468;SDS011;8345;50.902;6.956;2023-05-08T10:23:39;11.37;;;10.47;;
16468;SDS011;8345;50.902;6.956;2023-05-08T10:26:10;11.57;;;10.50;;
16468;SDS011;8345;50.902;6.956;2023-05-08T10:28:39;11.70;;;10.70;;
16468;SDS011;8345;50.902;6.956;2023-05-08T10:31:10;11.43;;;10.53;;
16468;SDS011;8345;50.902;6.956;2023-05-08T10:33:39;12.40;;;11.30;;
16468;SDS011;8345;50.902;6.956;2023-05-08T10:36:06;11.13;;;10.17;;
16468;SDS011;8345;50.902;6.956;2023-05-08T10:38:35;12.53;;;11.43;;
16468;SDS011;8345;50.902;6.956;2023-05-08T10:41:03;12.40;;;11.30;;
16468;SDS011;8345;50.902;6.956;2023-05-08T10:43:30;11.87;;;10.87;;
16468;SDS011;8345;50.902;6.956;2023-05-08T10:45:59;11.50;;;10.47;;
16468;SDS011;8345;50.902;6.956;2023-05-08T10:48:30;11.93;;;10.87;;
16468;SDS011;8345;50.902;6.956;2023-05-08T10:50:59;12.50;;;11.50;;
16468;SDS011;8345;50.902;6.956;2023-05-08T10:53:30;11.33;;;10.23;;
16468;SDS011;8345;50.902;6.956;2023-05-08T10:56:00;12.23;;;11.23;;
16468;SDS011;8345;50.902;6.956;2023-05-08T10:58:28;11.30;;;10.30;;
16468;SDS011;8345;50.902;6.956;2023-05-08T11:01:12;11.33;;;10.33;;
16468;SDS011;8345;50.902;6.956;2023-05-08T11:03:41;10.47;;;9.67;;
16468;SDS011;8345;50.902;6.956;2023-05-08T11:06:09;11.60;;;10.53;;
16468;SDS011;8345;50.902;6.956;2023-05-08T11:08:46;11.37;;;10.37;;
16468;SDS011;8345;50.902;6.956;2023-05-08T11:11:16;11.10;;;10.10;;
16468;SDS011;8345;50.902;6.956;2023-05-08T11:13:47;11.07;;;10.07;;
16468;SDS011;8345;50.902;6.956;2023-05-08T11:16:16;10.57;;;9.77;;
16468;SDS011;8345;50.902;6.956;2023-05-08T11:21:29;11.23;;;10.33;;
16468;SDS011;8345;50.902;6.956;2023-05-08T11:23:56;12.50;;;11.30;;
16468;SDS011;8345;50.902;6.956;2023-05-08T11:26:37;11.50;;;10.60;;
16468;SDS011;8345;50.902;6.956;2023-05-08T11:29:17;11.43;;;10.43;;
16468;SDS011;8345;50.902;6.956;2023-05-08T11:31:51;11.33;;;10.33;;
16468;SDS011;8345;50.902;6.956;2023-05-08T11:37:08;10.90;;;10.00;;
16468;SDS011;8345;50.902;6.956;2023-05-08T11:39:36;11.03;;;9.93;;
16468;SDS011;8345;50.902;6.956;2023-05-08T11:44:49;10.93;;;9.93;;
16468;SDS011;8345;50.902;6.956;2023-05-08T11:47:25;11.63;;;10.63;;
16468;SDS011;8345;50.902;6.956;2023-05-08T11:49:58;11.80;;;10.83;;
16468;SDS011;8345;50.902;6.956;2023-05-08T11:52:26;10.47;;;9.53;;
16468;SDS011;8345;50.902;6.956;2023-05-08T11:54:54;11.53;;;10.43;;
16468;SDS011;8345;50.902;6.956;2023-05-08T11:57:21;10.90;;;9.90;;
16468;SDS011;8345;50.902;6.956;2023-05-08T11:59:48;11.17;;;10.17;;
16468;SDS011;8345;50.902;6.956;2023-05-08T12:02:16;11.70;;;10.60;;
16468;SDS011;8345;50.902;6.956;2023-05-08T12:04:43;10.13;;;9.23;;
16468;SDS011;8345;50.902;6.956;2023-05-08T12:07:11;11.13;;;10.03;;
16468;SDS011;8345;50.902;6.956;2023-05-08T12:09:39;9.80;;;9.00;;
16468;SDS011;8345;50.902;6.956;2023-05-08T12:12:06;9.53;;;8.73;;
16468;SDS011;8345;50.902;6.956;2023-05-08T12:14:34;10.43;;;9.60;;
16468;SDS011;8345;50.902;6.956;2023-05-08T12:17:01;10.10;;;9.30;;
16468;SDS011;8345;50.902;6.956;2023-05-08T12:19:28;10.93;;;10.03;;
16468;SDS011;8345;50.902;6.956;2023-05-08T12:21:55;10.70;;;9.70;;
16468;SDS011;8345;50.902;6.956;2023-05-08T12:24:23;10.43;;;9.63;;
16468;SDS011;8345;50.902;6.956;2023-05-08T12:26:53;9.83;;;9.03;;
16468;SDS011;8345;50.902;6.956;2023-05-08T12:29:20;10.27;;;8.83;;
16468;SDS011;8345;50.902;6.956;2023-05-08T12:31:48;9.97;;;9.07;;
16468;SDS011;8345;50.902;6.956;2023-05-08T12:34:15;8.83;;;8.13;;
16468;SDS011;8345;50.902;6.956;2023-05-08T12:36:42;9.00;;;8.30;;
16468;SDS011;8345;50.902;6.956;2023-05-08T12:39:10;8.90;;;8.10;;
16468;SDS011;8345;50.902;6.956;2023-05-08T12:41:40;8.83;;;8.10;;
16468;SDS011;8345;50.902;6.956;2023-05-08T12:44:16;9.00;;;8.20;;
16468;SDS011;8345;50.902;6.956;2023-05-08T12:46:48;8.63;;;7.93;;
16468;SDS011;8345;50.902;6.956;2023-05-08T12:49:21;8.37;;;7.70;;
16468;SDS011;8345;50.902;6.956;2023-05-08T12:51:49;8.57;;;7.87;;
16468;SDS011;8345;50.902;6.956;2023-05-08T12:54:16;8.63;;;7.93;;
16468;SDS011;8345;50.902;6.956;2023-05-08T12:56:44;8.27;;;7.47;;
16468;SDS011;8345;50.902;6.956;2023-05-08T12:59:11;7.93;;;7.23;;
16468;SDS011;8345;50.902;6.956;2023-05-08T13:01:39;7.93;;;7.23;;
16468;SDS011;8345;50.902;6.956;2023-05-08T13:04:07;8.77;;;7.97;;
16468;SDS011;8345;50.902;6.956;2023-05-08T13:06:34;8.30;;;7.57;;
16468;SDS011;8345;50.902;6.956;2023-05-08T13:09:01;8.47;;;7.53;;
16468;SDS011;8345;50.902;6.956;2023-05-08T13:11:28;7.17;;;6.57;;
16468;SDS011;8345;50.902;6.956;2023-05-08T13:13:57;7.30;;;6.73;;
16468;SDS011;8345;50.902;6.956;2023-05-08T13:16:24;8.20;;;7.50;;
16468;SDS011;8345;50.902;6.956;2023-05-08T13:18:53;8.07;;;7.30;;
16468;SDS011;8345;50.902;6.956;2023-05-08T13:21:20;8.90;;;8.10;;
16468;SDS011;8345;50.902;6.956;2023-05-08T13:23:47;9.83;;;9.03;;
16468;SDS011;8345;50.902;6.956;2023-05-08T13:26:14;9.87;;;9.07;;
16468;SDS011;8345;50.902;6.956;2023-05-08T13:28:42;10.87;;;10.07;;
16468;SDS011;8345;50.902;6.956;2023-05-08T13:31:09;9.53;;;8.83;;
16468;SDS011;8345;50.902;6.956;2023-05-08T13:33:36;11.13;;;10.23;;
16468;SDS011;8345;50.902;6.956;2023-05-08T13:36:05;10.77;;;9.77;;
16468;SDS011;8345;50.902;6.956;2023-05-08T13:38:32;10.80;;;9.90;;
16468;SDS011;8345;50.902;6.956;2023-05-08T13:40:59;11.17;;;10.07;;
16468;SDS011;8345;50.902;6.956;2023-05-08T13:43:26;12.00;;;11.00;;
16468;SDS011;8345;50.902;6.956;2023-05-08T13:45:54;10.37;;;9.57;;
16468;SDS011;8345;50.902;6.956;2023-05-08T13:48:21;13.17;;;11.87;;
16468;SDS011;8345;50.902;6.956;2023-05-08T13:50:48;11.17;;;10.17;;
16468;SDS011;8345;50.902;6.956;2023-05-08T13:53:16;11.17;;;10.27;;
16468;SDS011;8345;50.902;6.956;2023-05-08T13:55:44;10.27;;;9.47;;
16468;SDS011;8345;50.902;6.956;2023-05-08T13:58:11;11.50;;;10.50;;
16468;SDS011;8345;50.902;6.956;2023-05-08T14:00:38;10.27;;;9.37;;
16468;SDS011;8345;50.902;6.956;2023-05-08T14:03:05;10.60;;;9.73;;
16468;SDS011;8345;50.902;6.956;2023-05-08T14:05:33;10.20;;;9.33;;
16468;SDS011;8345;50.902;6.956;2023-05-08T14:08:00;10.43;;;9.67;;
16468;SDS011;8345;50.902;6.956;2023-05-08T14:10:28;10.63;;;9.83;;
16468;SDS011;8345;50.902;6.956;2023-05-08T14:12:56;9.67;;;8.87;;
16468;SDS011;8345;50.902;6.956;2023-05-08T14:15:23;8.90;;;8.30;;
16468;SDS011;8345;50.902;6.956;2023-05-08T14:17:50;9.67;;;8.90;;
16468;SDS011;8345;50.902;6.956;2023-05-08T14:20:17;9.70;;;8.90;;
16468;SDS011;8345;50.902;6.956;2023-05-08T14:22:44;9.37;;;8.67;;
16468;SDS011;8345;50.902;6.956;2023-05-08T14:25:11;9.23;;;8.43;;
16468;SDS011;8345;50.902;6.956;2023-05-08T14:27:40;10.37;;;9.57;;
16468;SDS011;8345;50.902;6.956;2023-05-08T14:30:07;10.07;;;9.27;;
16468;SDS011;8345;50.902;6.956;2023-05-08T14:32:35;9.07;;;8.47;;
16468;SDS011;8345;50.902;6.956;2023-05-08T14:35:02;9.87;;;8.93;;
16468;SDS011;8345;50.902;6.956;2023-05-08T14:37:29;9.13;;;8.33;;
16468;SDS011;8345;50.902;6.956;2023-05-08T14:39:57;10.33;;;9.43;;
16468;SDS011;8345;50.902;6.956;2023-05-08T14:42:24;8.83;;;8.13;;
16468;SDS011;8345;50.902;6.956;2023-05-08T14:44:53;9.40;;;8.60;;
16468;SDS011;8345;50.902;6.956;2023-05-08T14:47:20;9.13;;;8.40;;
16468;SDS011;8345;50.902;6.956;2023-05-08T14:49:48;8.93;;;8.10;;
16468;SDS011;8345;50.902;6.956;2023-05-08T14:52:17;9.47;;;8.67;;
16468;SDS011;8345;50.902;6.956;2023-05-08T14:54:44;10.17;;;9.23;;
16468;SDS011;8345;50.902;6.956;2023-05-08T14:57:16;9.33;;;8.40;;
16468;SDS011;8345;50.902;6.956;2023-05-08T14:59:44;9.57;;;8.80;;
16468;SDS011;8345;50.902;6.956;2023-05-08T15:02:12;9.00;;;8.30;;
16468;SDS011;8345;50.902;6.956;2023-05-08T15:04:40;8.00;;;7.23;;
16468;SDS011;8345;50.902;6.956;2023-05-08T15:07:09;9.17;;;8.37;;
16468;SDS011;8345;50.902;6.956;2023-05-08T15:09:37;9.30;;;8.50;;